Time;durP1;ratioP1;P1;durP2;ratioP2;P2;SDS_P1;SDS_P2;PMS_P1;PMS_P2;Temp;Humidity;BMP_temperature;BMP_pressure;BME280_temperature;BME280_humidity;BME280_pressure;Samples;Min_cycle;Max_cycle;Signal;HPM_P1;HPM_P2
2022/03/20 00:01:34;;;;;;;104.00;48.48;;;;;;;-3.22;55.99;96942.53;1651360;85;21558;-50
2022/03/20 00:04:05;;;;;;;122.02;47.48;;;;;;;-3.31;55.96;96941.12;1656185;85;20967;-49
2022/03/20 00:06:32;;;;;;;98.52;42.80;;;;;;;-3.45;56.22;96943.08;1673712;84;21196;-49
2022/03/20 00:09:03;;;;;;;333.02;86.22;;;;;;;-3.48;56.42;96942.34;1691861;82;21118;-49
2022/03/20 00:11:32;;;;;;;322.67;83.58;;;;;;;-3.55;56.36;96945.77;1706398;82;21264;-49
2022/03/20 00:13:59;;;;;;;73.12;32.53;;;;;;;-3.65;56.67;96947.34;1705850;82;21009;-50
2022/03/20 00:16:29;;;;;;;73.28;34.50;;;;;;;-3.66;56.92;96945.18;1717484;82;21001;-49
2022/03/20 00:18:56;;;;;;;81.55;36.42;;;;;;;-3.71;57.24;96947.21;1707252;82;21194;-50
2022/03/20 00:21:23;;;;;;;107.27;46.08;;;;;;;-3.71;57.28;96948.55;1688219;82;21007;-49
2022/03/20 00:23:51;;;;;;;126.78;53.25;;;;;;;-3.83;57.49;96955.00;1693106;82;21167;-49
2022/03/20 00:26:18;;;;;;;179.72;78.52;;;;;;;-3.86;57.80;96947.54;1699325;82;20974;-49
2022/03/20 00:28:45;;;;;;;124.50;57.08;;;;;;;-3.91;58.11;96947.66;1701282;82;21092;-50
2022/03/20 00:31:13;;;;;;;133.18;58.45;;;;;;;-3.97;58.47;96939.44;1701846;82;20998;-50
2022/03/20 00:33:40;;;;;;;132.43;56.58;;;;;;;-3.98;58.71;96955.31;1708997;82;21041;-49
2022/03/20 00:36:07;;;;;;;112.65;49.75;;;;;;;-3.94;58.73;96945.02;1704385;82;21148;-50
2022/03/20 00:38:35;;;;;;;96.55;41.53;;;;;;;-3.86;58.73;96946.20;1704699;82;20968;-49
2022/03/20 00:41:03;;;;;;;162.10;56.15;;;;;;;-3.81;58.36;96948.77;1714580;82;21026;-51
2022/03/20 00:43:31;;;;;;;144.00;51.53;;;;;;;-3.78;58.63;96948.16;1721088;82;20991;-51
2022/03/20 00:45:59;;;;;;;95.80;42.70;;;;;;;-3.64;58.42;96952.95;1705819;82;20993;-49
2022/03/20 00:48:26;;;;;;;96.72;40.25;;;;;;;-3.51;57.95;96950.22;1699007;82;21148;-50
2022/03/20 00:50:54;;;;;;;84.65;38.85;;;;;;;-3.48;57.47;96949.06;1708691;82;20977;-50
2022/03/20 00:53:23;;;;;;;83.40;37.93;;;;;;;-3.44;57.35;96956.77;1707162;82;20970;-50
2022/03/20 00:55:52;;;;;;;56.80;31.17;;;;;;;-3.43;57.03;96957.02;1717018;82;21007;-50
2022/03/20 00:58:20;;;;;;;61.80;31.77;;;;;;;-3.46;56.87;96963.00;1711892;82;21101;-50
2022/03/20 01:00:47;;;;;;;64.95;33.70;;;;;;;-3.41;56.83;96956.16;1715933;82;21167;-49
2022/03/20 01:03:15;;;;;;;54.45;29.77;;;;;;;-3.36;56.47;96959.28;1715456;83;21007;-51
2022/03/20 01:05:43;;;;;;;54.88;30.88;;;;;;;-3.44;56.60;96962.16;1694108;82;21580;-50
2022/03/20 01:08:13;;;;;;;93.52;35.63;;;;;;;-3.50;56.49;96962.03;1703813;82;21016;-50
2022/03/20 01:10:42;;;;;;;122.42;42.25;;;;;;;-3.57;56.72;96956.26;1699115;82;21104;-48
2022/03/20 01:13:10;;;;;;;91.50;34.85;;;;;;;-3.61;56.76;96946.97;1704741;82;21821;-49
2022/03/20 01:15:39;;;;;;;191.00;56.88;;;;;;;-3.65;57.26;96948.67;1699733;82;21559;-51
2022/03/20 01:18:07;;;;;;;106.17;41.73;;;;;;;-3.66;56.99;96945.75;1698504;82;21034;-50
2022/03/20 01:20:34;;;;;;;264.25;76.35;;;;;;;-3.71;57.16;96949.90;1686757;83;21053;-49
2022/03/20 01:23:03;;;;;;;166.37;57.23;;;;;;;-3.81;56.93;96950.11;1690792;83;21062;-49
2022/03/20 01:25:30;;;;;;;322.55;92.80;;;;;;;-3.94;57.15;96954.95;1716761;82;21593;-48
2022/03/20 01:27:59;;;;;;;256.45;75.40;;;;;;;-4.03;57.60;96952.75;1712072;82;21064;-50
2022/03/20 01:30:28;;;;;;;155.63;55.43;;;;;;;-4.07;58.04;96947.17;1710270;82;21565;-48
2022/03/20 01:32:56;;;;;;;141.12;53.73;;;;;;;-4.07;58.05;96953.11;1687830;83;21080;-50
2022/03/20 01:35:23;;;;;;;104.72;43.15;;;;;;;-4.08;58.16;96957.67;1713360;82;20972;-50
2022/03/20 01:37:50;;;;;;;97.20;43.28;;;;;;;-4.11;57.90;96960.16;1716708;82;21773;-49
2022/03/20 01:40:18;;;;;;;88.25;41.08;;;;;;;-4.14;58.21;96959.41;1717401;82;21061;-49
2022/03/20 01:42:46;;;;;;;85.70;39.48;;;;;;;-4.10;58.19;96955.03;1714494;83;21019;-50
2022/03/20 01:45:19;;;;;;;85.00;40.45;;;;;;;-4.04;58.20;96963.25;1727746;83;21417;-49
2022/03/20 01:47:47;;;;;;;92.35;41.55;;;;;;;-3.99;57.99;96949.70;1694573;84;21498;-50
2022/03/20 01:50:17;;;;;;;88.05;42.90;;;;;;;-3.94;57.99;96967.05;1691303;84;21149;-51
2022/03/20 01:52:48;;;;;;;50.15;27.13;;;;;;;-3.94;57.81;96952.27;1691104;84;21025;-50
2022/03/20 01:55:16;;;;;;;51.55;27.25;;;;;;;-3.96;57.71;96963.88;1701358;83;21534;-49
2022/03/20 01:57:44;;;;;;;66.40;34.83;;;;;;;-4.06;58.01;96961.42;1698973;84;20979;-51
2022/03/20 02:00:14;;;;;;;75.72;35.55;;;;;;;-4.02;58.15;96948.96;1698801;84;21035;-50
2022/03/20 02:02:41;;;;;;;69.62;30.62;;;;;;;-4.02;58.00;96948.96;1692122;83;21155;-50
2022/03/20 02:05:10;;;;;;;208.78;56.28;;;;;;;-4.03;57.88;96950.84;1705186;82;21046;-49
2022/03/20 02:07:40;;;;;;;162.45;49.18;;;;;;;-4.08;57.76;96951.52;1706294;83;21014;-49
2022/03/20 02:10:08;;;;;;;164.43;48.87;;;;;;;-4.11;57.83;96951.56;1701195;82;21127;-47
2022/03/20 02:12:36;;;;;;;193.00;57.23;;;;;;;-4.17;57.75;96953.30;1702959;82;21066;-50
2022/03/20 02:15:05;;;;;;;118.72;41.20;;;;;;;-4.30;57.67;96954.91;1708392;82;21184;-49
2022/03/20 02:17:32;;;;;;;124.80;44.80;;;;;;;-4.46;57.90;96953.61;1706312;82;21011;-49
2022/03/20 02:20:08;;;;;;;147.43;50.12;;;;;;;-4.53;58.27;96945.70;1708293;82;21014;-49
2022/03/20 02:22:32;;;;;;;85.62;31.30;;;;;;;-4.53;58.44;96945.70;1702987;82;20982;-48
2022/03/20 02:25:08;;;;;;;103.20;37.85;;;;;;;-4.56;58.34;96945.77;1706653;82;21032;-49
2022/03/20 02:27:38;;;;;;;116.93;39.40;;;;;;;-4.54;58.47;96948.95;1701099;82;21232;-48
2022/03/20 02:30:16;;;;;;;95.20;37.03;;;;;;;-4.47;58.69;96956.58;1696591;82;21137;-50
2022/03/20 02:32:46;;;;;;;77.78;32.33;;;;;;;-4.41;58.54;96953.51;1702922;83;21125;-49
2022/03/20 02:35:15;;;;;;;71.77;32.05;;;;;;;-4.39;58.53;96963.97;1709493;82;21009;-50
2022/03/20 02:37:46;;;;;;;60.65;30.32;;;;;;;-4.35;58.55;96966.30;1705452;82;21021;-49
2022/03/20 02:40:13;;;;;;;64.32;31.97;;;;;;;-4.26;58.49;96965.30;1707215;82;21125;-49
2022/03/20 02:42:42;;;;;;;76.67;43.17;;;;;;;-4.14;58.34;96966.13;1710252;82;21124;-50
2022/03/20 02:45:13;;;;;;;143.37;47.23;;;;;;;-4.11;58.05;96967.69;1719062;82;21012;-51
2022/03/20 02:47:43;;;;;;;123.90;44.25;;;;;;;-4.21;57.85;96956.34;1707192;83;21453;-49
2022/03/20 02:50:24;;;;;;;91.78;38.13;;;;;;;-4.33;57.92;96974.84;1703171;83;21036;-50
2022/03/20 02:53:11;;;;;;;86.33;40.03;;;;;;;-4.47;58.03;96965.98;1697138;82;20959;-49
2022/03/20 02:55:36;;;;;;;75.85;35.68;;;;;;;-4.54;58.84;96967.75;1697931;82;21075;-49
2022/03/20 02:58:10;;;;;;;75.22;34.05;;;;;;;-4.44;58.71;96966.20;1702011;82;20940;-48
2022/03/20 03:00:38;;;;;;;78.47;37.15;;;;;;;-4.39;58.42;96966.65;1718108;82;21485;-50
2022/03/20 03:03:11;;;;;;;109.00;43.75;;;;;;;-4.43;58.42;96964.32;1698587;82;21562;-50
2022/03/20 03:05:38;;;;;;;105.63;43.87;;;;;;;-4.43;58.57;96969.69;1714477;82;21293;-50
2022/03/20 03:10:57;;;;;;;134.82;43.68;;;;;;;-4.58;58.67;96963.26;1695508;83;20981;-49
2022/03/20 03:13:35;;;;;;;73.37;30.52;;;;;;;-4.75;58.47;96972.44;1699096;83;21014;-48
2022/03/20 03:16:05;;;;;;;100.20;37.13;;;;;;;-4.94;58.56;96969.02;1710064;83;21571;-48
2022/03/20 03:18:35;;;;;;;148.50;48.08;;;;;;;-5.05;58.96;96974.30;1700532;83;21508;-48
2022/03/20 03:21:03;;;;;;;96.28;35.40;;;;;;;-5.10;59.25;96976.55;1719476;82;21477;-49
2022/03/20 03:23:30;;;;;;;76.60;31.90;;;;;;;-5.08;59.33;96978.38;1722293;82;20986;-50
2022/03/20 03:25:58;;;;;;;70.05;31.17;;;;;;;-5.10;59.60;96981.91;1727373;82;21098;-49
2022/03/20 03:28:33;;;;;;;66.15;28.95;;;;;;;-5.01;59.77;96978.01;1718841;82;21042;-50
2022/03/20 03:30:58;;;;;;;71.95;29.57;;;;;;;-4.87;59.84;96976.13;1711344;83;21893;-50
2022/03/20 03:33:26;;;;;;;46.35;23.75;;;;;;;-4.76;59.41;96978.90;1719151;82;21043;-51
2022/03/20 03:35:57;;;;;;;61.77;27.55;;;;;;;-4.79;59.20;96982.18;1705739;82;20962;-49
2022/03/20 03:38:35;;;;;;;60.60;30.20;;;;;;;-4.91;59.11;96984.53;1723389;82;21060;-49
2022/03/20 03:41:03;;;;;;;51.33;27.30;;;;;;;-4.96;59.73;96984.63;1716756;82;20957;-49
2022/03/20 03:43:31;;;;;;;55.60;28.85;;;;;;;-4.92;59.60;96985.62;1697223;82;21174;-51
2022/03/20 03:45:59;;;;;;;52.80;26.93;;;;;;;-4.90;59.83;96984.78;1723136;82;21011;-48
2022/03/20 03:48:27;;;;;;;52.55;29.07;;;;;;;-4.79;59.83;96978.16;1720035;82;21066;-49
2022/03/20 03:50:55;;;;;;;41.25;23.27;;;;;;;-4.67;59.41;96978.45;1713673;82;21060;-48
2022/03/20 03:53:23;;;;;;;53.20;25.62;;;;;;;-4.64;59.12;96976.54;1720901;82;21007;-49
2022/03/20 03:55:50;;;;;;;39.92;24.87;;;;;;;-4.73;58.80;96984.48;1719963;82;21182;-50
2022/03/20 03:58:18;;;;;;;51.95;27.27;;;;;;;-4.82;59.12;96980.88;1724013;82;21002;-50
2022/03/20 04:00:46;;;;;;;58.17;29.35;;;;;;;-4.81;59.13;96985.70;1722211;82;21014;-49
2022/03/20 04:03:14;;;;;;;80.95;37.70;;;;;;;-4.83;59.54;96983.86;1718875;82;20989;-50
2022/03/20 04:05:41;;;;;;;68.30;34.83;;;;;;;-4.73;59.71;96983.67;1723163;82;21065;-49
2022/03/20 04:08:11;;;;;;;72.60;35.98;;;;;;;-4.59;59.46;96995.23;1720879;82;21576;-49
2022/03/20 04:10:38;;;;;;;58.10;30.77;;;;;;;-4.58;59.50;96994.14;1713335;82;21551;-48
2022/03/20 04:13:05;;;;;;;126.58;59.75;;;;;;;-4.59;59.30;96993.33;1723288;83;21023;-50
2022/03/20 04:15:34;;;;;;;76.55;33.73;;;;;;;-4.77;59.03;96995.53;1728960;82;20963;-49
2022/03/20 04:18:03;;;;;;;58.08;28.92;;;;;;;-4.96;59.21;96998.04;1712769;82;21142;-50
2022/03/20 04:20:31;;;;;;;61.05;30.85;;;;;;;-5.00;59.73;96991.67;1720558;82;21205;-50
2022/03/20 04:25:44;;;;;;;59.48;32.20;;;;;;;-4.91;59.57;96989.89;1722613;82;21003;-51
2022/03/20 04:28:12;;;;;;;59.55;29.90;;;;;;;-4.99;59.58;96985.22;1714262;82;21021;-50
2022/03/20 04:30:39;;;;;;;57.65;31.97;;;;;;;-5.03;59.71;96992.23;1681588;84;21015;-51
2022/03/20 04:33:07;;;;;;;43.50;24.55;;;;;;;-5.07;59.78;96983.19;1679032;84;21153;-50
2022/03/20 04:35:37;;;;;;;47.53;25.52;;;;;;;-5.08;59.90;96987.77;1683928;84;21417;-51
2022/03/20 04:38:04;;;;;;;45.95;23.38;;;;;;;-5.10;59.98;96983.78;1701022;83;21435;-50
2022/03/20 04:40:33;;;;;;;39.95;20.92;;;;;;;-5.10;60.04;96985.94;1700209;84;20967;-49
2022/03/20 04:43:01;;;;;;;67.12;35.60;;;;;;;-5.13;59.95;96990.52;1700369;83;21019;-49
2022/03/20 04:45:29;;;;;;;51.70;29.12;;;;;;;-5.21;60.23;96991.20;1703543;83;21270;-49
2022/03/20 04:59:00;;;;;;;56.37;30.23;;;;;;;-5.31;60.72;97014.70;1709461;83;21168;-50
2022/03/20 05:01:27;;;;;;;71.10;31.75;;;;;;;-5.16;60.11;97007.77;1704631;83;21007;-49
2022/03/20 05:03:55;;;;;;;56.83;27.67;;;;;;;-5.17;60.10;97019.59;1705869;83;20956;-49
2022/03/20 05:06:22;;;;;;;58.55;29.75;;;;;;;-5.11;60.13;97025.12;1710292;82;21019;-50
2022/03/20 05:08:51;;;;;;;61.58;29.37;;;;;;;-5.12;59.98;97014.13;1693250;83;21127;-49
2022/03/20 05:14:05;;;;;;;50.40;26.52;;;;;;;-5.06;59.92;97012.42;1696919;82;21034;-49
2022/03/20 05:16:34;;;;;;;66.33;34.50;;;;;;;-5.06;59.95;97014.29;1719270;82;20964;-51
2022/03/20 05:19:02;;;;;;;59.93;31.23;;;;;;;-5.09;60.19;97021.59;1712086;82;21483;-49
2022/03/20 05:21:31;;;;;;;69.37;31.17;;;;;;;-5.02;60.35;97026.03;1697979;83;21038;-51
2022/03/20 05:23:58;;;;;;;60.63;34.13;;;;;;;-5.00;60.46;97030.02;1691374;83;21284;-50
2022/03/20 05:26:28;;;;;;;58.30;33.23;;;;;;;-4.97;60.66;97029.99;1701977;83;21043;-51
2022/03/20 05:28:55;;;;;;;59.38;34.45;;;;;;;-4.86;60.81;97030.87;1695335;84;20989;-51
2022/03/20 05:31:22;;;;;;;54.93;30.82;;;;;;;-4.72;61.07;97034.39;1708487;83;21080;-52
2022/03/20 05:33:51;;;;;;;92.02;46.02;;;;;;;-4.56;60.71;97030.89;1710477;82;21588;-51
2022/03/20 05:36:19;;;;;;;77.97;38.70;;;;;;;-4.45;60.59;97032.31;1716752;82;21276;-50
2022/03/20 05:38:46;;;;;;;62.83;31.37;;;;;;;-4.32;60.29;97036.87;1717151;83;21081;-49
2022/03/20 05:44:00;;;;;;;78.37;36.45;;;;;;;-4.17;59.79;97044.13;1716797;83;21061;-50
2022/03/20 05:46:27;;;;;;;62.98;33.20;;;;;;;-3.98;59.22;97046.70;1713114;83;21129;-51
2022/03/20 05:48:54;;;;;;;76.97;39.18;;;;;;;-3.93;58.94;97050.09;1718137;82;21143;-49
2022/03/20 05:51:21;;;;;;;65.40;36.25;;;;;;;-3.86;58.83;97049.14;1717880;82;21065;-50
2022/03/20 05:53:49;;;;;;;58.65;31.10;;;;;;;-3.74;58.66;97049.44;1720169;82;21006;-51
2022/03/20 05:59:02;;;;;;;67.32;34.13;;;;;;;-3.68;57.54;97051.48;1717424;82;21156;-49
2022/03/20 06:01:30;;;;;;;70.87;35.20;;;;;;;-3.70;57.28;97047.73;1712230;83;21148;-49
2022/03/20 06:03:58;;;;;;;75.57;36.77;;;;;;;-3.72;57.02;97055.31;1717893;82;21355;-49
2022/03/20 06:06:25;;;;;;;68.07;30.65;;;;;;;-3.74;56.88;97051.31;1702680;82;21002;-50
2022/03/20 06:08:53;;;;;;;70.30;34.92;;;;;;;-3.60;56.88;97057.48;1699779;82;21084;-49
2022/03/20 06:11:20;;;;;;;54.98;28.23;;;;;;;-3.50;56.35;97058.87;1702089;82;21049;-49
2022/03/20 06:13:49;;;;;;;66.87;32.38;;;;;;;-3.54;56.13;97062.45;1710004;82;21006;-50
2022/03/20 06:16:23;;;;;;;61.13;31.40;;;;;;;-3.57;56.21;97054.43;1690048;82;21035;-50
2022/03/20 06:18:51;;;;;;;46.58;25.85;;;;;;;-3.38;55.97;97051.62;1694288;82;20971;-49
2022/03/20 06:21:18;;;;;;;59.75;28.42;;;;;;;-3.18;55.10;97057.36;1686326;84;21044;-50
2022/03/20 06:23:45;;;;;;;50.17;27.00;;;;;;;-3.13;54.88;97059.12;1698825;84;21007;-50
2022/03/20 06:26:12;;;;;;;49.95;24.75;;;;;;;-3.10;54.47;97053.93;1698847;84;22063;-50
2022/03/20 06:28:40;;;;;;;47.27;24.37;;;;;;;-3.07;54.48;97047.94;1696674;83;21071;-50
2022/03/20 06:31:12;;;;;;;44.42;23.02;;;;;;;-3.02;54.20;97054.54;1715468;83;20995;-50
2022/03/20 06:33:39;;;;;;;40.95;23.67;;;;;;;-2.97;53.97;97054.44;1711104;83;21003;-51
2022/03/20 06:36:09;;;;;;;43.92;24.72;;;;;;;-2.85;53.81;97050.63;1709783;82;21012;-50
2022/03/20 06:38:37;;;;;;;35.48;22.30;;;;;;;-2.73;53.47;97046.06;1682912;82;21823;-50
2022/03/20 06:41:09;;;;;;;45.40;22.48;;;;;;;-2.64;53.29;97039.63;1685652;83;21088;-50
2022/03/20 06:43:40;;;;;;;39.75;21.77;;;;;;;-2.59;52.92;97048.12;1697372;82;21048;-49
2022/03/20 06:46:07;;;;;;;41.23;25.23;;;;;;;-2.58;52.88;97033.55;1683980;82;21024;-49
2022/03/20 06:48:34;;;;;;;45.55;21.90;;;;;;;-2.54;52.61;97023.20;1691989;82;21056;-50
2022/03/20 06:51:04;;;;;;;38.23;22.22;;;;;;;-2.37;52.64;97023.30;1693967;84;21854;-49
2022/03/20 06:53:32;;;;;;;37.53;21.12;;;;;;;-2.27;52.27;97019.00;1687158;84;21167;-50
2022/03/20 06:56:00;;;;;;;36.13;20.80;;;;;;;-2.11;52.10;97014.75;1693050;82;21067;-51
2022/03/20 06:58:28;;;;;;;43.48;25.25;;;;;;;-2.01;51.63;97020.42;1695858;82;21020;-50
2022/03/20 07:00:55;;;;;;;37.28;22.87;;;;;;;-1.92;52.07;97015.30;1682433;82;21076;-49
2022/03/20 07:03:23;;;;;;;46.60;22.87;;;;;;;-1.66;51.85;97016.19;1686312;84;21505;-50
2022/03/20 07:05:51;;;;;;;40.05;22.58;;;;;;;-1.45;51.26;97006.37;1694003;83;21017;-51
2022/03/20 07:08:21;;;;;;;46.73;27.22;;;;;;;-1.36;50.80;97005.27;1713548;82;21147;-50
2022/03/20 07:10:49;;;;;;;42.90;23.22;;;;;;;-1.33;50.65;97009.26;1725906;82;21012;-49
2022/03/20 07:16:04;;;;;;;41.53;25.15;;;;;;;-1.19;50.10;97012.04;1688437;83;21126;-51
2022/03/20 07:18:31;;;;;;;35.85;20.90;;;;;;;-1.16;49.82;97011.97;1703717;82;21499;-49
2022/03/20 07:20:59;;;;;;;31.37;19.82;;;;;;;-1.11;49.66;97007.75;1717717;82;21018;-49
2022/03/20 07:23:27;;;;;;;30.37;19.75;;;;;;;-0.99;49.15;96999.81;1695384;83;21008;-49
2022/03/20 07:31:27;;;;;;;41.25;19.90;;;;;;;-0.82;48.79;96995.72;1714472;83;21842;-51
2022/03/20 07:33:54;;;;;;;25.32;15.60;;;;;;;-0.69;48.79;96999.63;1704862;82;21105;-51
2022/03/20 07:36:22;;;;;;;27.17;14.75;;;;;;;-0.55;47.98;96988.62;1699128;82;21052;-51
2022/03/20 07:38:52;;;;;;;29.42;17.32;;;;;;;-0.33;47.16;96991.09;1702554;82;21064;-52
2022/03/20 07:41:19;;;;;;;33.58;17.92;;;;;;;-0.18;46.84;96981.10;1694872;82;21276;-51
2022/03/20 07:43:47;;;;;;;26.40;16.20;;;;;;;0.03;46.35;96984.91;1721107;81;21102;-52
2022/03/20 07:46:15;;;;;;;31.97;18.07;;;;;;;0.15;45.93;96985.02;1706222;82;21013;-51
2022/03/20 07:48:43;;;;;;;20.95;14.58;;;;;;;0.23;45.65;96990.93;1696447;82;21085;-52
2022/03/20 07:51:12;;;;;;;32.42;15.88;;;;;;;0.34;44.91;96984.03;1707001;82;21055;-51
2022/03/20 07:53:39;;;;;;;25.77;14.50;;;;;;;0.38;44.77;96984.18;1705549;81;21806;-50
2022/03/20 07:56:06;;;;;;;23.95;14.10;;;;;;;0.39;44.68;96979.77;1704133;82;21132;-55
2022/03/20 07:58:36;;;;;;;24.60;14.53;;;;;;;0.47;44.63;96982.20;1707715;82;21265;-51
2022/03/20 08:01:04;;;;;;;32.05;17.85;;;;;;;0.59;44.68;96977.65;1708821;81;21064;-49
2022/03/20 08:03:31;;;;;;;29.30;17.77;;;;;;;0.69;44.65;96967.80;1717153;82;21018;-50
2022/03/20 08:06:00;;;;;;;33.70;18.45;;;;;;;0.89;44.69;96967.00;1704522;82;21247;-49
2022/03/20 08:08:27;;;;;;;36.55;20.30;;;;;;;1.00;44.50;96973.58;1712063;81;21505;-50
2022/03/20 08:10:55;;;;;;;30.68;18.30;;;;;;;1.13;44.50;96961.67;1709538;82;21476;-53
2022/03/20 08:13:22;;;;;;;36.23;19.80;;;;;;;1.31;44.18;96963.09;1699991;81;21509;-52
2022/03/20 08:15:50;;;;;;;39.83;19.65;;;;;;;1.46;43.82;96964.38;1709971;81;21455;-49
2022/03/20 08:18:17;;;;;;;29.55;18.67;;;;;;;1.68;43.21;96962.06;1712282;81;21151;-54
2022/03/20 08:20:44;;;;;;;28.77;17.15;;;;;;;1.86;42.44;96962.09;1700063;82;21117;-52
2022/03/20 08:23:12;;;;;;;34.08;17.48;;;;;;;1.94;41.62;96960.63;1701723;82;20980;-54
2022/03/20 08:25:39;;;;;;;27.85;17.23;;;;;;;2.03;42.00;96957.81;1704477;82;21006;-52
2022/03/20 08:28:09;;;;;;;26.90;16.15;;;;;;;2.08;41.98;96951.60;1701650;82;21019;-50
2022/03/20 08:30:39;;;;;;;28.10;18.02;;;;;;;2.16;41.84;96949.91;1698718;81;21022;-50
2022/03/20 08:33:06;;;;;;;33.30;19.12;;;;;;;2.24;42.05;96939.48;1714451;81;20998;-53
2022/03/20 08:35:35;;;;;;;31.42;18.32;;;;;;;2.43;42.08;96942.41;1705465;81;21160;-52
2022/03/20 08:38:03;;;;;;;34.15;19.40;;;;;;;2.66;41.54;96937.50;1695106;82;21022;-51
2022/03/20 08:40:30;;;;;;;30.37;17.57;;;;;;;2.84;41.20;96931.25;1703753;81;21100;-51
2022/03/20 08:42:59;;;;;;;32.85;18.90;;;;;;;2.98;40.06;96930.27;1714494;81;21130;-52
2022/03/20 08:45:29;;;;;;;30.88;17.30;;;;;;;3.11;39.99;96931.81;1705963;81;21033;-51
2022/03/20 08:47:57;;;;;;;27.90;17.42;;;;;;;3.33;38.90;96927.17;1696155;82;21010;-52
2022/03/20 08:50:25;;;;;;;32.00;18.32;;;;;;;3.39;39.71;96921.73;1697905;82;21018;-52
2022/03/20 08:52:53;;;;;;;26.42;17.10;;;;;;;3.55;39.69;96917.30;1704550;81;20979;-51
2022/03/20 08:55:20;;;;;;;33.23;17.48;;;;;;;3.83;38.88;96919.98;1709034;82;21712;-50
2022/03/20 08:57:51;;;;;;;35.52;18.77;;;;;;;4.07;37.96;96913.75;1695241;82;21074;-50
2022/03/20 09:00:19;;;;;;;30.60;18.80;;;;;;;4.20;38.14;96912.52;1702250;82;21054;-52
2022/03/20 09:02:47;;;;;;;31.60;20.32;;;;;;;4.34;38.00;96907.97;1703282;82;21066;-51
2022/03/20 09:05:17;;;;;;;36.00;19.55;;;;;;;4.56;37.52;96911.39;1699922;82;21053;-51
2022/03/20 09:07:46;;;;;;;46.90;22.62;;;;;;;4.70;37.29;96904.33;1711571;81;21272;-52
2022/03/20 09:10:15;;;;;;;42.53;22.80;;;;;;;4.80;37.25;96905.70;1707160;81;21146;-50
2022/03/20 09:12:43;;;;;;;68.72;33.10;;;;;;;5.05;36.77;96907.00;1703761;81;21058;-53
2022/03/20 09:15:15;;;;;;;51.83;28.65;;;;;;;5.35;36.46;96897.85;1710826;82;21086;-53
2022/03/20 09:20:29;;;;;;;26.70;16.23;;;;;;;5.69;35.70;96886.01;1705202;82;21258;-52
2022/03/20 09:22:57;;;;;;;50.03;25.45;;;;;;;5.94;33.83;96873.61;1710453;82;20994;-50
2022/03/20 09:25:25;;;;;;;29.25;17.95;;;;;;;6.02;33.22;96871.19;1706276;82;20981;-51
2022/03/20 09:27:54;;;;;;;23.27;14.85;;;;;;;6.04;34.13;96865.58;1703293;82;21604;-50
2022/03/20 09:30:21;;;;;;;23.52;15.03;;;;;;;6.17;35.06;96871.62;1708702;82;21616;-50
2022/03/20 09:32:50;;;;;;;23.12;15.53;;;;;;;6.28;34.48;96872.56;1704297;82;21169;-52
2022/03/20 09:35:17;;;;;;;19.50;14.07;;;;;;;6.40;33.75;96862.80;1712804;82;21035;-51
2022/03/20 09:37:45;;;;;;;25.62;13.70;;;;;;;6.68;33.95;96863.20;1716134;81;21062;-50
2022/03/20 09:40:13;;;;;;;17.20;12.13;;;;;;;7.01;33.72;96872.23;1698495;81;21040;-54
2022/03/20 09:42:41;;;;;;;22.55;14.95;;;;;;;7.38;32.85;96869.72;1703462;82;21068;-54
2022/03/20 09:45:12;;;;;;;32.58;18.67;;;;;;;7.67;32.29;96871.59;1697896;82;21216;-51
2022/03/20 09:47:41;;;;;;;37.65;21.65;;;;;;;7.75;30.81;96860.93;1705233;82;21138;-50
2022/03/20 09:50:11;;;;;;;34.92;18.55;;;;;;;7.72;30.83;96860.29;1710936;82;21899;-53
2022/03/20 09:52:39;;;;;;;29.72;16.70;;;;;;;7.77;31.21;96859.97;1707361;81;20979;-52
2022/03/20 09:55:08;;;;;;;48.38;26.48;;;;;;;7.95;31.07;96855.43;1699033;82;21093;-51
2022/03/20 09:57:38;;;;;;;69.30;30.37;;;;;;;8.17;30.75;96859.91;1706445;81;21852;-50
2022/03/20 10:00:11;;;;;;;31.17;18.05;;;;;;;8.47;30.44;96859.16;1702452;82;21081;-50
2022/03/20 10:02:37;;;;;;;45.65;21.52;;;;;;;8.80;29.99;96854.09;1717033;82;21077;-53
2022/03/20 10:05:07;;;;;;;27.98;17.12;;;;;;;9.08;29.03;96852.25;1703396;82;21053;-59
2022/03/20 10:07:42;;;;;;;32.53;17.70;;;;;;;9.29;29.44;96846.23;1705328;81;21085;-53
2022/03/20 10:10:12;;;;;;;27.75;14.90;;;;;;;9.42;28.34;96839.82;1698515;82;21163;-50
2022/03/20 10:12:46;;;;;;;44.93;22.00;;;;;;;9.46;28.72;96846.10;1700192;82;21181;-51
2022/03/20 10:15:38;;;;;;;43.08;20.12;;;;;;;9.39;29.18;96840.57;1695245;82;21036;-52
2022/03/20 10:18:18;;;;;;;19.90;13.35;;;;;;;9.39;28.52;96846.86;1694655;82;21063;-53
2022/03/20 10:20:51;;;;;;;16.95;11.10;;;;;;;9.28;27.61;96845.27;1706135;82;21043;-53
2022/03/20 10:23:41;;;;;;;22.67;14.85;;;;;;;9.11;27.60;96849.50;1701391;82;21319;-52
2022/03/20 10:26:13;;;;;;;27.70;17.32;;;;;;;9.10;27.55;96838.92;1716681;82;21071;-55
2022/03/20 10:28:44;;;;;;;23.98;16.00;;;;;;;9.23;27.85;96847.02;1672630;83;21125;-52
2022/03/20 10:31:20;;;;;;;18.67;12.70;;;;;;;9.30;28.52;96842.91;1700665;82;21155;-54
2022/03/20 10:34:05;;;;;;;28.07;15.98;;;;;;;9.49;27.97;96838.45;1705213;81;21461;-51
2022/03/20 10:36:33;;;;;;;25.20;14.25;;;;;;;9.68;27.88;96839.47;1703912;81;21142;-52
2022/03/20 10:39:03;;;;;;;27.85;13.62;;;;;;;9.76;27.44;96832.82;1706275;81;21102;-52
2022/03/20 10:41:34;;;;;;;19.00;13.10;;;;;;;10.05;26.92;96833.05;1710145;82;21513;-53
2022/03/20 10:44:05;;;;;;;34.15;18.70;;;;;;;10.46;26.66;96823.19;1708384;82;21569;-52
2022/03/20 10:46:33;;;;;;;26.95;15.78;;;;;;;10.77;26.13;96825.28;1686313;83;20966;-50
2022/03/20 10:49:07;;;;;;;38.50;18.82;;;;;;;11.09;25.81;96820.45;1722182;82;21148;-52
2022/03/20 10:51:41;;;;;;;32.23;17.73;;;;;;;11.23;25.70;96818.23;1705261;83;21094;-50
2022/03/20 10:54:15;;;;;;;25.88;15.93;;;;;;;11.20;25.40;96806.02;1675615;83;21174;-53
2022/03/20 10:56:58;;;;;;;30.23;17.50;;;;;;;11.27;26.14;96819.79;1685952;83;21039;-53
2022/03/20 10:59:27;;;;;;;28.55;15.95;;;;;;;11.36;26.13;96821.50;1691399;83;21099;-51
2022/03/20 11:01:54;;;;;;;30.00;17.00;;;;;;;11.31;25.79;96819.17;1703297;83;21140;-50
2022/03/20 11:04:25;;;;;;;24.80;14.83;;;;;;;11.31;25.67;96821.92;1702923;83;20867;-50
2022/03/20 11:07:00;;;;;;;39.25;20.25;;;;;;;11.30;25.50;96820.94;1704287;83;22422;-50
2022/03/20 11:09:30;;;;;;;25.02;15.90;;;;;;;11.28;26.00;96822.73;1711706;83;21537;-50
2022/03/20 11:11:58;;;;;;;27.87;15.10;;;;;;;11.37;25.91;96825.83;1707668;83;21549;-51
2022/03/20 11:14:27;;;;;;;24.63;13.85;;;;;;;11.46;25.33;96824.00;1707853;83;21163;-52
2022/03/20 11:17:02;;;;;;;24.50;15.65;;;;;;;11.65;24.74;96813.88;1707975;83;21143;-51
2022/03/20 11:19:30;;;;;;;25.00;13.38;;;;;;;11.96;25.02;96812.88;1714222;83;20966;-50
2022/03/20 11:22:12;;;;;;;45.43;23.92;;;;;;;12.41;24.88;96812.49;1711545;83;21146;-52
2022/03/20 11:24:41;;;;;;;44.08;21.23;;;;;;;12.74;24.38;96807.02;1687297;82;21088;-51
2022/03/20 11:27:11;;;;;;;35.85;16.05;;;;;;;12.83;23.08;96799.62;1720763;82;21177;-52
2022/03/20 11:29:52;;;;;;;28.95;15.60;;;;;;;12.79;23.05;96794.73;1719184;82;20978;-54
2022/03/20 11:32:19;;;;;;;43.25;18.07;;;;;;;12.96;23.25;96795.17;1721971;82;21013;-51
2022/03/20 11:34:48;;;;;;;37.08;18.35;;;;;;;13.25;23.11;96786.72;1722493;82;21046;-51
2022/03/20 11:37:16;;;;;;;31.52;15.10;;;;;;;13.40;21.61;96786.69;1721507;82;20996;-51
2022/03/20 11:40:17;;;;;;;28.47;17.50;;;;;;;13.34;21.87;96778.69;1726144;82;21523;-50
2022/03/20 11:42:44;;;;;;;34.58;21.48;;;;;;;13.30;21.48;96769.67;1721984;82;21061;-50
2022/03/20 11:45:16;;;;;;;34.05;17.98;;;;;;;13.26;22.04;96768.94;1698254;82;21514;-50
2022/03/20 11:47:49;;;;;;;22.37;14.23;;;;;;;13.53;22.14;96771.11;1694800;83;21584;-52
2022/03/20 11:50:25;;;;;;;29.18;15.10;;;;;;;13.91;21.87;96762.23;1688748;83;20954;-51
2022/03/20 11:53:02;;;;;;;26.65;14.95;;;;;;;14.53;21.47;96759.59;1703080;84;21092;-49
2022/03/20 11:55:51;;;;;;;19.95;13.72;;;;;;;15.08;20.92;96758.31;1690297;83;21013;-50
2022/03/20 11:58:24;;;;;;;23.25;14.87;;;;;;;15.59;20.55;96747.92;1695632;83;21301;-52
2022/03/20 12:01:09;;;;;;;27.22;15.32;;;;;;;16.24;20.73;96749.53;1717006;82;21470;-51
2022/03/20 12:04:04;;;;;;;34.78;17.25;;;;;;;16.71;20.87;96740.36;1711483;82;21217;-51